sensor_id;sensor_type;location;lat;lon;timestamp;P1;durP1;ratioP1;P2;durP2;ratioP2
64816;SDS011;69411;45.656;11.740;2023-04-24T00:00:10;24.73;;;14.23;;
64816;SDS011;69411;45.656;11.740;2023-04-24T00:02:40;22.50;;;14.25;;
64816;SDS011;69411;45.656;11.740;2023-04-24T00:05:15;22.48;;;12.90;;
64816;SDS011;69411;45.656;11.740;2023-04-24T00:07:42;22.33;;;13.88;;
64816;SDS011;69411;45.656;11.740;2023-04-24T00:10:10;22.38;;;13.05;;
64816;SDS011;69411;45.656;11.740;2023-04-24T00:12:37;19.42;;;12.63;;
64816;SDS011;69411;45.656;11.740;2023-04-24T00:15:03;21.98;;;14.23;;
64816;SDS011;69411;45.656;11.740;2023-04-24T00:17:30;23.25;;;14.55;;
64816;SDS011;69411;45.656;11.740;2023-04-24T00:19:57;24.17;;;14.70;;
64816;SDS011;69411;45.656;11.740;2023-04-24T00:22:27;23.35;;;14.18;;
64816;SDS011;69411;45.656;11.740;2023-04-24T00:24:54;24.95;;;14.65;;
64816;SDS011;69411;45.656;11.740;2023-04-24T00:27:20;19.80;;;12.70;;
64816;SDS011;69411;45.656;11.740;2023-04-24T00:29:46;21.83;;;14.05;;
64816;SDS011;69411;45.656;11.740;2023-04-24T00:32:12;21.08;;;12.55;;
64816;SDS011;69411;45.656;11.740;2023-04-24T00:34:39;18.58;;;11.95;;
64816;SDS011;69411;45.656;11.740;2023-04-24T00:37:05;14.82;;;10.50;;
64816;SDS011;69411;45.656;11.740;2023-04-24T00:39:31;16.60;;;10.75;;
64816;SDS011;69411;45.656;11.740;2023-04-24T00:41:57;19.48;;;12.23;;
64816;SDS011;69411;45.656;11.740;2023-04-24T00:44:24;22.75;;;14.32;;
64816;SDS011;69411;45.656;11.740;2023-04-24T00:46:50;22.15;;;14.30;;
64816;SDS011;69411;45.656;11.740;2023-04-24T00:49:22;22.17;;;14.15;;
64816;SDS011;69411;45.656;11.740;2023-04-24T00:51:48;22.63;;;13.18;;
64816;SDS011;69411;45.656;11.740;2023-04-24T00:54:16;20.08;;;14.25;;
64816;SDS011;69411;45.656;11.740;2023-04-24T00:56:43;24.25;;;14.60;;
64816;SDS011;69411;45.656;11.740;2023-04-24T00:59:13;21.40;;;13.48;;
64816;SDS011;69411;45.656;11.740;2023-04-24T01:01:41;18.67;;;12.93;;
64816;SDS011;69411;45.656;11.740;2023-04-24T01:04:08;19.45;;;13.38;;
64816;SDS011;69411;45.656;11.740;2023-04-24T01:06:35;22.13;;;14.10;;
64816;SDS011;69411;45.656;11.740;2023-04-24T01:09:04;22.98;;;15.27;;
64816;SDS011;69411;45.656;11.740;2023-04-24T01:11:31;21.60;;;13.73;;
64816;SDS011;69411;45.656;11.740;2023-04-24T01:13:57;20.95;;;12.63;;
64816;SDS011;69411;45.656;11.740;2023-04-24T01:16:24;19.98;;;13.13;;
64816;SDS011;69411;45.656;11.740;2023-04-24T01:18:50;20.73;;;13.13;;
64816;SDS011;69411;45.656;11.740;2023-04-24T01:21:16;18.65;;;12.32;;
64816;SDS011;69411;45.656;11.740;2023-04-24T01:23:45;21.20;;;13.07;;
64816;SDS011;69411;45.656;11.740;2023-04-24T01:26:12;17.92;;;11.85;;
64816;SDS011;69411;45.656;11.740;2023-04-24T01:28:39;17.95;;;11.80;;
64816;SDS011;69411;45.656;11.740;2023-04-24T01:31:05;17.48;;;11.38;;
64816;SDS011;69411;45.656;11.740;2023-04-24T01:33:31;18.92;;;11.70;;
64816;SDS011;69411;45.656;11.740;2023-04-24T01:35:58;17.95;;;10.73;;
64816;SDS011;69411;45.656;11.740;2023-04-24T01:38:24;17.67;;;10.65;;
64816;SDS011;69411;45.656;11.740;2023-04-24T01:40:50;14.73;;;10.13;;
64816;SDS011;69411;45.656;11.740;2023-04-24T01:43:16;17.30;;;11.13;;
64816;SDS011;69411;45.656;11.740;2023-04-24T01:45:43;16.80;;;10.98;;
64816;SDS011;69411;45.656;11.740;2023-04-24T01:48:09;15.73;;;10.20;;
64816;SDS011;69411;45.656;11.740;2023-04-24T01:50:36;14.90;;;9.73;;
64816;SDS011;69411;45.656;11.740;2023-04-24T01:53:02;12.82;;;9.38;;
64816;SDS011;69411;45.656;11.740;2023-04-24T01:55:28;15.25;;;10.05;;
64816;SDS011;69411;45.656;11.740;2023-04-24T01:57:55;17.80;;;9.60;;
64816;SDS011;69411;45.656;11.740;2023-04-24T02:00:22;16.35;;;8.85;;
64816;SDS011;69411;45.656;11.740;2023-04-24T02:02:49;13.73;;;9.25;;
64816;SDS011;69411;45.656;11.740;2023-04-24T02:05:15;13.00;;;8.07;;
64816;SDS011;69411;45.656;11.740;2023-04-24T02:07:41;14.60;;;9.27;;
64816;SDS011;69411;45.656;11.740;2023-04-24T02:10:07;12.00;;;8.05;;
64816;SDS011;69411;45.656;11.740;2023-04-24T02:12:34;14.63;;;8.23;;
64816;SDS011;69411;45.656;11.740;2023-04-24T02:15:00;13.32;;;8.23;;
64816;SDS011;69411;45.656;11.740;2023-04-24T02:17:26;11.50;;;8.18;;
64816;SDS011;69411;45.656;11.740;2023-04-24T02:19:52;14.40;;;8.10;;
64816;SDS011;69411;45.656;11.740;2023-04-24T02:22:18;12.60;;;8.50;;
64816;SDS011;69411;45.656;11.740;2023-04-24T02:24:44;13.15;;;7.53;;
64816;SDS011;69411;45.656;11.740;2023-04-24T02:27:10;10.45;;;7.20;;
64816;SDS011;69411;45.656;11.740;2023-04-24T02:29:36;13.90;;;8.38;;
64816;SDS011;69411;45.656;11.740;2023-04-24T02:32:02;11.82;;;8.25;;
64816;SDS011;69411;45.656;11.740;2023-04-24T02:34:28;13.60;;;8.32;;
64816;SDS011;69411;45.656;11.740;2023-04-24T02:36:54;11.52;;;8.20;;
64816;SDS011;69411;45.656;11.740;2023-04-24T02:39:20;12.60;;;8.05;;
64816;SDS011;69411;45.656;11.740;2023-04-24T02:41:46;15.50;;;8.70;;
64816;SDS011;69411;45.656;11.740;2023-04-24T02:44:12;13.50;;;8.85;;
64816;SDS011;69411;45.656;11.740;2023-04-24T02:46:38;12.15;;;8.02;;
64816;SDS011;69411;45.656;11.740;2023-04-24T02:49:06;13.13;;;8.80;;
64816;SDS011;69411;45.656;11.740;2023-04-24T02:51:32;12.10;;;8.05;;
64816;SDS011;69411;45.656;11.740;2023-04-24T02:53:58;11.93;;;7.93;;
64816;SDS011;69411;45.656;11.740;2023-04-24T02:56:24;13.63;;;8.48;;
64816;SDS011;69411;45.656;11.740;2023-04-24T02:58:50;12.00;;;8.45;;
64816;SDS011;69411;45.656;11.740;2023-04-24T03:01:16;12.85;;;7.90;;
64816;SDS011;69411;45.656;11.740;2023-04-24T03:03:43;11.63;;;7.57;;
64816;SDS011;69411;45.656;11.740;2023-04-24T03:06:09;12.25;;;7.90;;
64816;SDS011;69411;45.656;11.740;2023-04-24T03:08:35;13.85;;;8.52;;
64816;SDS011;69411;45.656;11.740;2023-04-24T03:11:01;12.15;;;7.57;;
64816;SDS011;69411;45.656;11.740;2023-04-24T03:13:27;12.57;;;7.45;;
64816;SDS011;69411;45.656;11.740;2023-04-24T03:15:52;12.77;;;8.00;;
64816;SDS011;69411;45.656;11.740;2023-04-24T03:18:19;12.50;;;7.78;;
64816;SDS011;69411;45.656;11.740;2023-04-24T03:20:45;11.50;;;8.05;;
64816;SDS011;69411;45.656;11.740;2023-04-24T03:23:12;12.73;;;8.32;;
64816;SDS011;69411;45.656;11.740;2023-04-24T03:25:38;13.00;;;7.90;;
64816;SDS011;69411;45.656;11.740;2023-04-24T03:28:04;11.02;;;7.28;;
64816;SDS011;69411;45.656;11.740;2023-04-24T03:30:30;14.18;;;8.20;;
64816;SDS011;69411;45.656;11.740;2023-04-24T03:32:56;13.45;;;7.10;;
64816;SDS011;69411;45.656;11.740;2023-04-24T03:35:22;11.60;;;7.25;;
64816;SDS011;69411;45.656;11.740;2023-04-24T03:37:48;12.68;;;7.15;;
64816;SDS011;69411;45.656;11.740;2023-04-24T03:40:14;11.13;;;7.38;;
64816;SDS011;69411;45.656;11.740;2023-04-24T03:42:40;11.02;;;6.63;;
64816;SDS011;69411;45.656;11.740;2023-04-24T03:45:06;10.48;;;6.82;;
64816;SDS011;69411;45.656;11.740;2023-04-24T03:47:32;12.02;;;7.45;;
64816;SDS011;69411;45.656;11.740;2023-04-24T03:49:58;11.68;;;7.25;;
64816;SDS011;69411;45.656;11.740;2023-04-24T03:52:24;11.63;;;7.78;;
64816;SDS011;69411;45.656;11.740;2023-04-24T03:54:50;13.75;;;8.00;;
64816;SDS011;69411;45.656;11.740;2023-04-24T03:57:16;13.07;;;7.97;;
64816;SDS011;69411;45.656;11.740;2023-04-24T03:59:42;11.73;;;7.63;;
64816;SDS011;69411;45.656;11.740;2023-04-24T04:02:08;10.75;;;7.18;;
64816;SDS011;69411;45.656;11.740;2023-04-24T04:04:34;9.75;;;6.88;;
64816;SDS011;69411;45.656;11.740;2023-04-24T04:07:00;9.50;;;6.55;;
64816;SDS011;69411;45.656;11.740;2023-04-24T04:09:28;10.65;;;6.30;;
64816;SDS011;69411;45.656;11.740;2023-04-24T04:11:54;9.20;;;6.10;;
64816;SDS011;69411;45.656;11.740;2023-04-24T04:14:21;10.60;;;6.60;;
64816;SDS011;69411;45.656;11.740;2023-04-24T04:16:47;11.73;;;7.25;;
64816;SDS011;69411;45.656;11.740;2023-04-24T04:19:13;10.77;;;7.15;;
64816;SDS011;69411;45.656;11.740;2023-04-24T04:21:39;11.95;;;6.95;;
64816;SDS011;69411;45.656;11.740;2023-04-24T04:24:05;9.77;;;7.07;;
64816;SDS011;69411;45.656;11.740;2023-04-24T04:26:32;12.25;;;6.82;;
64816;SDS011;69411;45.656;11.740;2023-04-24T04:28:58;11.55;;;6.60;;
64816;SDS011;69411;45.656;11.740;2023-04-24T04:31:25;10.75;;;6.70;;
64816;SDS011;69411;45.656;11.740;2023-04-24T04:33:51;11.18;;;7.25;;
64816;SDS011;69411;45.656;11.740;2023-04-24T04:36:17;10.07;;;6.68;;
64816;SDS011;69411;45.656;11.740;2023-04-24T04:38:43;11.05;;;6.55;;
64816;SDS011;69411;45.656;11.740;2023-04-24T04:41:10;11.20;;;6.82;;
64816;SDS011;69411;45.656;11.740;2023-04-24T04:43:36;11.10;;;6.70;;
64816;SDS011;69411;45.656;11.740;2023-04-24T04:46:03;11.32;;;6.85;;
64816;SDS011;69411;45.656;11.740;2023-04-24T04:48:29;11.25;;;7.38;;
64816;SDS011;69411;45.656;11.740;2023-04-24T04:50:56;10.77;;;7.35;;
64816;SDS011;69411;45.656;11.740;2023-04-24T04:53:23;13.55;;;9.05;;
64816;SDS011;69411;45.656;11.740;2023-04-24T04:55:49;16.02;;;10.05;;
64816;SDS011;69411;45.656;11.740;2023-04-24T04:58:15;16.20;;;10.20;;
64816;SDS011;69411;45.656;11.740;2023-04-24T05:00:41;14.60;;;9.85;;
64816;SDS011;69411;45.656;11.740;2023-04-24T05:03:07;18.50;;;10.35;;
64816;SDS011;69411;45.656;11.740;2023-04-24T05:05:33;17.42;;;10.82;;
64816;SDS011;69411;45.656;11.740;2023-04-24T05:07:59;17.52;;;10.48;;
64816;SDS011;69411;45.656;11.740;2023-04-24T05:10:25;17.90;;;10.80;;
64816;SDS011;69411;45.656;11.740;2023-04-24T05:12:51;18.85;;;10.70;;
64816;SDS011;69411;45.656;11.740;2023-04-24T05:15:17;17.13;;;10.75;;
64816;SDS011;69411;45.656;11.740;2023-04-24T05:17:43;16.75;;;10.68;;
64816;SDS011;69411;45.656;11.740;2023-04-24T05:20:09;17.20;;;10.40;;
64816;SDS011;69411;45.656;11.740;2023-04-24T05:22:35;18.40;;;11.10;;
64816;SDS011;69411;45.656;11.740;2023-04-24T05:25:01;17.90;;;10.75;;
64816;SDS011;69411;45.656;11.740;2023-04-24T05:27:27;18.95;;;11.43;;
64816;SDS011;69411;45.656;11.740;2023-04-24T05:29:53;19.55;;;10.85;;
64816;SDS011;69411;45.656;11.740;2023-04-24T05:32:19;19.20;;;12.02;;
64816;SDS011;69411;45.656;11.740;2023-04-24T05:34:45;17.77;;;11.25;;
64816;SDS011;69411;45.656;11.740;2023-04-24T05:37:11;16.38;;;11.07;;
64816;SDS011;69411;45.656;11.740;2023-04-24T05:39:37;18.13;;;10.52;;
64816;SDS011;69411;45.656;11.740;2023-04-24T05:42:04;15.13;;;10.23;;
64816;SDS011;69411;45.656;11.740;2023-04-24T05:44:30;19.77;;;10.57;;
64816;SDS011;69411;45.656;11.740;2023-04-24T05:46:56;15.23;;;9.73;;
64816;SDS011;69411;45.656;11.740;2023-04-24T05:49:22;17.35;;;10.32;;
64816;SDS011;69411;45.656;11.740;2023-04-24T05:51:48;14.75;;;9.88;;
64816;SDS011;69411;45.656;11.740;2023-04-24T05:54:14;17.27;;;9.55;;
64816;SDS011;69411;45.656;11.740;2023-04-24T05:56:40;16.27;;;9.80;;
64816;SDS011;69411;45.656;11.740;2023-04-24T05:59:06;15.65;;;10.10;;
64816;SDS011;69411;45.656;11.740;2023-04-24T06:01:32;15.85;;;9.55;;
64816;SDS011;69411;45.656;11.740;2023-04-24T06:03:58;13.55;;;8.93;;
64816;SDS011;69411;45.656;11.740;2023-04-24T06:06:25;13.77;;;9.40;;
64816;SDS011;69411;45.656;11.740;2023-04-24T06:08:52;14.45;;;8.52;;
64816;SDS011;69411;45.656;11.740;2023-04-24T06:11:18;14.18;;;8.70;;
64816;SDS011;69411;45.656;11.740;2023-04-24T06:13:44;12.75;;;8.20;;
64816;SDS011;69411;45.656;11.740;2023-04-24T06:16:10;13.07;;;7.55;;
64816;SDS011;69411;45.656;11.740;2023-04-24T06:18:36;12.07;;;8.57;;
64816;SDS011;69411;45.656;11.740;2023-04-24T06:21:03;13.18;;;8.05;;
64816;SDS011;69411;45.656;11.740;2023-04-24T06:23:30;14.35;;;8.43;;
64816;SDS011;69411;45.656;11.740;2023-04-24T06:25:58;14.30;;;8.27;;
64816;SDS011;69411;45.656;11.740;2023-04-24T06:28:24;13.93;;;8.70;;
64816;SDS011;69411;45.656;11.740;2023-04-24T06:30:50;10.02;;;6.97;;
64816;SDS011;69411;45.656;11.740;2023-04-24T06:33:16;15.00;;;7.55;;
64816;SDS011;69411;45.656;11.740;2023-04-24T06:35:42;10.32;;;6.97;;
64816;SDS011;69411;45.656;11.740;2023-04-24T06:38:08;11.05;;;6.80;;
64816;SDS011;69411;45.656;11.740;2023-04-24T06:40:34;11.07;;;7.00;;
64816;SDS011;69411;45.656;11.740;2023-04-24T06:43:00;10.55;;;7.38;;
64816;SDS011;69411;45.656;11.740;2023-04-24T06:45:28;11.02;;;7.15;;
64816;SDS011;69411;45.656;11.740;2023-04-24T06:47:55;13.35;;;8.85;;
64816;SDS011;69411;45.656;11.740;2023-04-24T06:50:21;14.13;;;8.95;;
64816;SDS011;69411;45.656;11.740;2023-04-24T06:52:47;15.27;;;9.77;;
64816;SDS011;69411;45.656;11.740;2023-04-24T06:55:13;13.88;;;7.90;;
64816;SDS011;69411;45.656;11.740;2023-04-24T06:57:41;9.88;;;6.47;;
64816;SDS011;69411;45.656;11.740;2023-04-24T07:00:07;8.75;;;5.30;;
64816;SDS011;69411;45.656;11.740;2023-04-24T07:02:34;11.00;;;5.50;;
64816;SDS011;69411;45.656;11.740;2023-04-24T07:05:00;9.35;;;5.72;;
64816;SDS011;69411;45.656;11.740;2023-04-24T07:07:26;8.63;;;5.40;;
64816;SDS011;69411;45.656;11.740;2023-04-24T07:09:52;9.48;;;6.20;;
64816;SDS011;69411;45.656;11.740;2023-04-24T07:12:19;9.20;;;5.97;;
64816;SDS011;69411;45.656;11.740;2023-04-24T07:14:47;9.00;;;6.07;;
64816;SDS011;69411;45.656;11.740;2023-04-24T07:17:13;11.23;;;7.43;;
64816;SDS011;69411;45.656;11.740;2023-04-24T07:19:40;12.27;;;7.47;;
64816;SDS011;69411;45.656;11.740;2023-04-24T07:22:06;10.80;;;7.30;;
64816;SDS011;69411;45.656;11.740;2023-04-24T07:24:32;10.27;;;7.00;;
64816;SDS011;69411;45.656;11.740;2023-04-24T07:26:57;11.68;;;7.15;;
64816;SDS011;69411;45.656;11.740;2023-04-24T07:29:26;7.45;;;4.25;;
64816;SDS011;69411;45.656;11.740;2023-04-24T07:31:52;3.60;;;2.63;;
64816;SDS011;69411;45.656;11.740;2023-04-24T07:34:19;1.63;;;1.40;;
64816;SDS011;69411;45.656;11.740;2023-04-24T07:36:45;1.73;;;1.50;;
64816;SDS011;69411;45.656;11.740;2023-04-24T07:39:11;1.63;;;1.48;;
64816;SDS011;69411;45.656;11.740;2023-04-24T07:41:37;2.40;;;2.10;;
64816;SDS011;69411;45.656;11.740;2023-04-24T07:44:03;2.47;;;2.00;;
64816;SDS011;69411;45.656;11.740;2023-04-24T07:46:29;2.15;;;1.48;;
64816;SDS011;69411;45.656;11.740;2023-04-24T07:48:55;1.88;;;1.33;;
64816;SDS011;69411;45.656;11.740;2023-04-24T07:51:21;2.72;;;1.92;;
64816;SDS011;69411;45.656;11.740;2023-04-24T07:53:47;2.00;;;1.00;;
64816;SDS011;69411;45.656;11.740;2023-04-24T07:56:13;1.73;;;1.20;;
64816;SDS011;69411;45.656;11.740;2023-04-24T07:58:39;2.47;;;1.58;;
64816;SDS011;69411;45.656;11.740;2023-04-24T08:01:05;2.53;;;2.25;;
64816;SDS011;69411;45.656;11.740;2023-04-24T08:03:31;4.22;;;2.92;;
64816;SDS011;69411;45.656;11.740;2023-04-24T08:05:57;4.18;;;2.75;;
64816;SDS011;69411;45.656;11.740;2023-04-24T08:08:23;5.05;;;3.00;;
64816;SDS011;69411;45.656;11.740;2023-04-24T08:10:49;4.05;;;1.85;;
64816;SDS011;69411;45.656;11.740;2023-04-24T08:13:15;3.45;;;2.40;;
64816;SDS011;69411;45.656;11.740;2023-04-24T08:15:41;4.47;;;2.35;;
64816;SDS011;69411;45.656;11.740;2023-04-24T08:18:07;2.75;;;2.25;;
64816;SDS011;69411;45.656;11.740;2023-04-24T08:20:33;3.25;;;2.30;;
64816;SDS011;69411;45.656;11.740;2023-04-24T08:22:58;8.68;;;3.10;;
64816;SDS011;69411;45.656;11.740;2023-04-24T08:25:25;2.40;;;1.67;;
64816;SDS011;69411;45.656;11.740;2023-04-24T08:27:51;2.60;;;2.17;;
64816;SDS011;69411;45.656;11.740;2023-04-24T08:30:17;2.92;;;2.53;;
64816;SDS011;69411;45.656;11.740;2023-04-24T08:32:43;2.15;;;1.95;;
64816;SDS011;69411;45.656;11.740;2023-04-24T08:35:09;2.13;;;1.48;;
64816;SDS011;69411;45.656;11.740;2023-04-24T08:37:35;2.42;;;1.60;;
64816;SDS011;69411;45.656;11.740;2023-04-24T08:40:14;3.65;;;2.00;;
64816;SDS011;69411;45.656;11.740;2023-04-24T08:42:41;2.58;;;1.42;;
64816;SDS011;69411;45.656;11.740;2023-04-24T08:45:09;2.38;;;1.50;;
64816;SDS011;69411;45.656;11.740;2023-04-24T08:47:37;3.95;;;2.80;;
64816;SDS011;69411;45.656;11.740;2023-04-24T08:50:05;4.30;;;2.88;;
64816;SDS011;69411;45.656;11.740;2023-04-24T08:52:33;4.38;;;3.10;;
64816;SDS011;69411;45.656;11.740;2023-04-24T08:55:00;2.58;;;2.20;;
64816;SDS011;69411;45.656;11.740;2023-04-24T08:57:26;3.03;;;2.60;;
64816;SDS011;69411;45.656;11.740;2023-04-24T08:59:53;4.50;;;2.90;;
64816;SDS011;69411;45.656;11.740;2023-04-24T09:02:21;4.18;;;2.88;;
64816;SDS011;69411;45.656;11.740;2023-04-24T09:04:48;4.38;;;2.70;;
64816;SDS011;69411;45.656;11.740;2023-04-24T09:07:15;2.63;;;2.30;;
64816;SDS011;69411;45.656;11.740;2023-04-24T09:09:43;3.08;;;2.78;;
64816;SDS011;69411;45.656;11.740;2023-04-24T09:12:09;3.40;;;2.83;;
64816;SDS011;69411;45.656;11.740;2023-04-24T09:14:36;4.45;;;3.00;;
64816;SDS011;69411;45.656;11.740;2023-04-24T09:17:07;3.67;;;2.40;;
64816;SDS011;69411;45.656;11.740;2023-04-24T09:19:33;3.72;;;2.70;;
64816;SDS011;69411;45.656;11.740;2023-04-24T09:21:59;2.60;;;2.20;;
64816;SDS011;69411;45.656;11.740;2023-04-24T09:24:29;3.67;;;2.50;;
64816;SDS011;69411;45.656;11.740;2023-04-24T09:26:58;3.53;;;2.30;;
64816;SDS011;69411;45.656;11.740;2023-04-24T09:29:26;2.75;;;2.38;;
64816;SDS011;69411;45.656;11.740;2023-04-24T09:31:53;2.30;;;2.10;;
64816;SDS011;69411;45.656;11.740;2023-04-24T09:34:22;2.92;;;2.15;;
64816;SDS011;69411;45.656;11.740;2023-04-24T09:36:49;2.40;;;1.67;;
64816;SDS011;69411;45.656;11.740;2023-04-24T09:39:16;1.80;;;1.63;;
64816;SDS011;69411;45.656;11.740;2023-04-24T09:41:44;1.83;;;1.67;;
64816;SDS011;69411;45.656;11.740;2023-04-24T09:44:12;1.90;;;1.65;;
64816;SDS011;69411;45.656;11.740;2023-04-24T09:46:49;3.33;;;1.70;;
64816;SDS011;69411;45.656;11.740;2023-04-24T09:49:25;1.75;;;1.60;;
64816;SDS011;69411;45.656;11.740;2023-04-24T09:52:14;3.15;;;2.60;;
64816;SDS011;69411;45.656;11.740;2023-04-24T09:54:40;1.90;;;1.48;;
64816;SDS011;69411;45.656;11.740;2023-04-24T09:57:09;1.52;;;1.40;;
64816;SDS011;69411;45.656;11.740;2023-04-24T09:59:35;2.38;;;1.85;;
64816;SDS011;69411;45.656;11.740;2023-04-24T10:02:18;2.47;;;1.42;;
64816;SDS011;69411;45.656;11.740;2023-04-24T10:04:55;2.58;;;2.20;;
64816;SDS011;69411;45.656;11.740;2023-04-24T10:07:26;1.95;;;1.40;;
64816;SDS011;69411;45.656;11.740;2023-04-24T10:09:52;3.00;;;1.75;;
64816;SDS011;69411;45.656;11.740;2023-04-24T10:12:19;1.58;;;1.48;;
64816;SDS011;69411;45.656;11.740;2023-04-24T10:14:45;1.60;;;1.50;;
64816;SDS011;69411;45.656;11.740;2023-04-24T10:17:11;1.83;;;1.13;;
64816;SDS011;69411;45.656;11.740;2023-04-24T10:19:37;2.33;;;1.00;;
64816;SDS011;69411;45.656;11.740;2023-04-24T10:22:05;1.38;;;1.27;;
64816;SDS011;69411;45.656;11.740;2023-04-24T10:24:33;1.05;;;0.80;;
64816;SDS011;69411;45.656;11.740;2023-04-24T10:27:02;0.80;;;0.80;;
64816;SDS011;69411;45.656;11.740;2023-04-24T10:29:30;1.90;;;1.30;;
64816;SDS011;69411;45.656;11.740;2023-04-24T10:31:57;1.45;;;1.23;;
64816;SDS011;69411;45.656;11.740;2023-04-24T10:34:22;1.13;;;1.02;;
64816;SDS011;69411;45.656;11.740;2023-04-24T10:36:52;3.00;;;1.25;;
64816;SDS011;69411;45.656;11.740;2023-04-24T10:39:20;1.25;;;1.15;;
64816;SDS011;69411;45.656;11.740;2023-04-24T10:41:48;0.85;;;0.80;;
64816;SDS011;69411;45.656;11.740;2023-04-24T10:44:15;1.20;;;0.93;;
64816;SDS011;69411;45.656;11.740;2023-04-24T10:46:44;3.47;;;1.10;;
64816;SDS011;69411;45.656;11.740;2023-04-24T10:49:12;1.40;;;1.05;;
64816;SDS011;69411;45.656;11.740;2023-04-24T10:51:45;1.30;;;1.20;;
64816;SDS011;69411;45.656;11.740;2023-04-24T10:54:25;1.25;;;1.05;;
64816;SDS011;69411;45.656;11.740;2023-04-24T10:56:52;1.20;;;1.00;;
64816;SDS011;69411;45.656;11.740;2023-04-24T10:59:25;1.38;;;1.27;;
64816;SDS011;69411;45.656;11.740;2023-04-24T11:01:53;0.90;;;0.90;;
64816;SDS011;69411;45.656;11.740;2023-04-24T11:04:32;1.95;;;1.30;;
64816;SDS011;69411;45.656;11.740;2023-04-24T11:07:00;1.40;;;1.30;;
64816;SDS011;69411;45.656;11.740;2023-04-24T11:09:35;1.30;;;1.20;;
64816;SDS011;69411;45.656;11.740;2023-04-24T11:12:08;2.08;;;1.20;;
64816;SDS011;69411;45.656;11.740;2023-04-24T11:17:31;1.40;;;1.30;;
64816;SDS011;69411;45.656;11.740;2023-04-24T11:20:09;1.67;;;1.30;;
64816;SDS011;69411;45.656;11.740;2023-04-24T11:22:37;1.95;;;1.50;;
64816;SDS011;69411;45.656;11.740;2023-04-24T11:25:07;1.42;;;1.33;;
64816;SDS011;69411;45.656;11.740;2023-04-24T11:30:07;2.13;;;1.30;;
64816;SDS011;69411;45.656;11.740;2023-04-24T11:35:03;1.25;;;1.15;;
64816;SDS011;69411;45.656;11.740;2023-04-24T11:37:39;1.83;;;1.52;;
64816;SDS011;69411;45.656;11.740;2023-04-24T11:40:08;1.63;;;1.48;;
64816;SDS011;69411;45.656;11.740;2023-04-24T11:42:42;2.22;;;1.63;;
64816;SDS011;69411;45.656;11.740;2023-04-24T11:47:36;1.75;;;1.65;;
64816;SDS011;69411;45.656;11.740;2023-04-24T11:50:03;2.45;;;1.65;;
64816;SDS011;69411;45.656;11.740;2023-04-24T11:52:31;1.65;;;1.50;;
64816;SDS011;69411;45.656;11.740;2023-04-24T11:54:58;2.70;;;1.35;;
64816;SDS011;69411;45.656;11.740;2023-04-24T11:57:25;1.90;;;1.35;;
64816;SDS011;69411;45.656;11.740;2023-04-24T11:59:59;1.65;;;1.40;;
64816;SDS011;69411;45.656;11.740;2023-04-24T12:02:26;1.70;;;1.30;;
64816;SDS011;69411;45.656;11.740;2023-04-24T12:04:53;2.45;;;1.45;;
64816;SDS011;69411;45.656;11.740;2023-04-24T12:07:19;1.40;;;1.30;;
64816;SDS011;69411;45.656;11.740;2023-04-24T12:09:47;1.23;;;1.13;;
64816;SDS011;69411;45.656;11.740;2023-04-24T12:12:25;1.20;;;1.10;;
64816;SDS011;69411;45.656;11.740;2023-04-24T12:14:54;1.30;;;1.02;;
64816;SDS011;69411;45.656;11.740;2023-04-24T12:17:30;1.88;;;1.50;;
64816;SDS011;69411;45.656;11.740;2023-04-24T12:20:02;1.98;;;1.30;;
64816;SDS011;69411;45.656;11.740;2023-04-24T12:25:22;1.65;;;1.13;;
64816;SDS011;69411;45.656;11.740;2023-04-24T12:27:57;1.85;;;1.50;;
64816;SDS011;69411;45.656;11.740;2023-04-24T12:30:44;2.83;;;1.83;;
64816;SDS011;69411;45.656;11.740;2023-04-24T12:33:22;1.92;;;1.48;;
64816;SDS011;69411;45.656;11.740;2023-04-24T12:35:50;1.40;;;1.25;;
64816;SDS011;69411;45.656;11.740;2023-04-24T12:38:21;2.05;;;1.58;;
64816;SDS011;69411;45.656;11.740;2023-04-24T12:41:00;1.95;;;1.40;;
64816;SDS011;69411;45.656;11.740;2023-04-24T12:43:31;1.98;;;1.23;;
64816;SDS011;69411;45.656;11.740;2023-04-24T12:45:57;1.83;;;1.67;;
64816;SDS011;69411;45.656;11.740;2023-04-24T12:48:25;2.00;;;1.52;;
64816;SDS011;69411;45.656;11.740;2023-04-24T12:50:53;1.83;;;1.58;;
64816;SDS011;69411;45.656;11.740;2023-04-24T12:53:19;2.35;;;1.73;;
64816;SDS011;69411;45.656;11.740;2023-04-24T12:55:45;2.17;;;1.70;;
64816;SDS011;69411;45.656;11.740;2023-04-24T12:58:12;2.28;;;1.60;;
64816;SDS011;69411;45.656;11.740;2023-04-24T13:00:38;1.60;;;1.50;;
64816;SDS011;69411;45.656;11.740;2023-04-24T13:03:04;2.05;;;1.70;;
64816;SDS011;69411;45.656;11.740;2023-04-24T13:05:30;3.08;;;1.75;;
64816;SDS011;69411;45.656;11.740;2023-04-24T13:07:57;2.15;;;1.90;;
64816;SDS011;69411;45.656;11.740;2023-04-24T13:10:23;2.40;;;1.90;;
64816;SDS011;69411;45.656;11.740;2023-04-24T13:12:48;6.07;;;2.05;;
64816;SDS011;69411;45.656;11.740;2023-04-24T13:15:14;1.70;;;1.60;;
64816;SDS011;69411;45.656;11.740;2023-04-24T13:17:40;1.80;;;1.48;;
64816;SDS011;69411;45.656;11.740;2023-04-24T13:20:06;2.92;;;2.33;;
64816;SDS011;69411;45.656;11.740;2023-04-24T13:22:32;2.35;;;2.15;;
64816;SDS011;69411;45.656;11.740;2023-04-24T13:24:59;2.33;;;2.13;;
64816;SDS011;69411;45.656;11.740;2023-04-24T13:27:26;1.98;;;1.80;;
64816;SDS011;69411;45.656;11.740;2023-04-24T13:29:52;2.65;;;2.10;;
64816;SDS011;69411;45.656;11.740;2023-04-24T13:32:18;2.83;;;1.98;;
64816;SDS011;69411;45.656;11.740;2023-04-24T13:34:44;2.70;;;2.20;;
64816;SDS011;69411;45.656;11.740;2023-04-24T13:37:09;2.88;;;2.40;;
64816;SDS011;69411;45.656;11.740;2023-04-24T13:39:35;3.97;;;2.28;;
64816;SDS011;69411;45.656;11.740;2023-04-24T13:42:02;3.67;;;2.45;;
64816;SDS011;69411;45.656;11.740;2023-04-24T13:44:28;2.83;;;2.10;;
64816;SDS011;69411;45.656;11.740;2023-04-24T13:46:54;2.40;;;2.20;;
64816;SDS011;69411;45.656;11.740;2023-04-24T13:49:22;3.58;;;2.33;;
64816;SDS011;69411;45.656;11.740;2023-04-24T13:51:51;2.45;;;1.75;;
64816;SDS011;69411;45.656;11.740;2023-04-24T13:54:17;3.78;;;2.17;;
64816;SDS011;69411;45.656;11.740;2023-04-24T13:56:43;3.08;;;2.22;;
64816;SDS011;69411;45.656;11.740;2023-04-24T13:59:09;2.65;;;2.35;;
64816;SDS011;69411;45.656;11.740;2023-04-24T14:01:37;2.58;;;2.30;;
64816;SDS011;69411;45.656;11.740;2023-04-24T14:04:03;3.08;;;2.45;;
64816;SDS011;69411;45.656;11.740;2023-04-24T14:06:29;2.97;;;2.13;;
64816;SDS011;69411;45.656;11.740;2023-04-24T14:08:54;2.88;;;2.20;;
64816;SDS011;69411;45.656;11.740;2023-04-24T14:11:20;2.20;;;2.00;;
64816;SDS011;69411;45.656;11.740;2023-04-24T14:13:47;3.70;;;2.35;;
64816;SDS011;69411;45.656;11.740;2023-04-24T14:16:13;2.60;;;2.28;;
64816;SDS011;69411;45.656;11.740;2023-04-24T14:18:39;2.08;;;1.90;;
64816;SDS011;69411;45.656;11.740;2023-04-24T14:21:05;1.88;;;1.75;;
64816;SDS011;69411;45.656;11.740;2023-04-24T14:23:31;2.83;;;2.03;;
64816;SDS011;69411;45.656;11.740;2023-04-24T14:25:58;1.95;;;1.77;;
64816;SDS011;69411;45.656;11.740;2023-04-24T14:28:24;2.80;;;2.20;;
64816;SDS011;69411;45.656;11.740;2023-04-24T14:30:51;2.67;;;2.33;;
64816;SDS011;69411;45.656;11.740;2023-04-24T14:33:17;2.22;;;2.03;;
64816;SDS011;69411;45.656;11.740;2023-04-24T14:35:43;4.30;;;2.17;;
64816;SDS011;69411;45.656;11.740;2023-04-24T14:38:10;4.00;;;2.70;;